| Record Date MM/DD/YYYY | Record Julian Date NNN day of the year | Air Temperature Max (Degrees Fahrenheit F) | Time Max Air Temperature HH:MM:SS This is the time of max air temperature standard time. | Air Temperature Min (Degrees Fahrenheit F) | Time Min Air Temperature HH:MM:SS This is the time of min air temperature standard time. | Air Temperature Observed (Degrees Fahrenheit F) This is an instantaneous reading for air temperature at 7:00:00 standard time. | Relative Humidity Max (Percent) | Time Max Relative Humidity HH:MM:SS This is the time of max relative humidity standard time. | Relative Humidity Min (Percent) | Time Min Relative Humidity HH:MM:SS This is the time of min relative humidity standard time. | Relative Humidity Observed (Percent) This is an instantaneous reading at 7:00:00 standard time. | Precipitation (Inches n.nn) total rain fall that occurred for the day. | Pan Evaporation (Inches n.nn) total evaporation that occured for the day. | Wind Run (Miles) Wind travel for the day. | Wind Speed (Miles Per Hour) Resultant / Average speed for the day. | Wind Direction (Degrees) Resultant Direction for the day | Solar Radiation (Langley's) that occurred for the day. | Soil Temperature Max at 2 inch depth (Degrees Fahrenheit F) that occurred during the day. | Time Max Soil temperature at 2 inches HH:MM:SS This is the time of max 2 inch soil temperature standard time. | Soil Temperature Min at 2 inch depth (Degrees Fahrenheit F) that occurred during the day. | Time Min Soil temperature at 2 inches HH:MM:SS This is the time of min 2 inch soil temperature standard time. | Soil Temperature Observed at 2 inch depth (Degrees Fahrenheit F) This is an instantaneous reading 2 inch soil temperature at 7:00:00 standard time. | Soil Temperature Max at 4 inch depth (Degrees Fahrenheit F) that occurred during the day. | Time Max Soil temperature at 4 inches HH:MM:SS This is the time of max 4 inch soil temperature standard time. | Soil Temperature Min at 4 inch depth (Degrees Fahrenheit F) that occurred during the day. | Time Min Soil temperature at 4 inches HH:MM:SS This is the time of min 4 inch soil temperature standard time. | Soil Temperature Observed at 4 inch depth (Degrees Fahrenheit F) This is an instantaneous reading 4 inch soil temperature at 7:00:00 standard time. | DD50 Degree Days 50 Fahrenheit. | Adjusted DD50 Degree Days 50 Fahrenheit adjusted for latitude. | DD60 Degree Days 60 Fahrenheit. |
|---|---|---|---|---|---|---|---|---|---|---|---|---|---|---|---|---|---|---|---|---|---|---|---|---|---|---|---|---|---|---|
| 08/01/2026 | 214 | 99 | 14:28:05 | 70 | 23:59:05 | 83 | 95 | 0:35:04 | 51 | 16:08:03 | 80 | 0 | 68 | 2.8 | 257 | 39 | 109 | 14:32:01 | 83 | 5:22:05 | 85 | 103 | 14:54:04 | 85 | 5:49:03 | 86 | 34.5 | 27.63 | 24.5 | |
| 08/02/2026 | 215 | 84 | 15:57:02 | 68 | 4:08:04 | 73 | 98 | 23:32:05 | 64 | 12:11:03 | 90 | 0 | 30 | 1.3 | 306 | 155 | 92 | 16:03:05 | 79 | 4:25:03 | 81 | 91 | 16:32:00 | 82 | 5:38:01 | 83 | 26 | 27.61 | 16 | |
| 08/03/2026 | 216 | 95 | 16:00:02 | 66 | 5:19:01 | 75 | 100 | 2:05:03 | 44 | 15:55:01 | 90 | 0 | 29 | 1.2 | 344 | 72 | 107 | 15:33:04 | 76 | 5:36:01 | 79 | 101 | 16:18:00 | 79 | 6:05:03 | 80 | 30.5 | 27.58 | 20.5 | |
| 08/04/2026 | 217 | 97 | 15:12:01 | 67 | 23:59:02 | 78 | 100 | 1:40:00 | 33 | 15:12:02 | 84 | 0 | 22 | 0.9 | 13 | 46 | 109 | 13:28:05 | 78 | 5:23:01 | 81 | 103 | 15:37:05 | 81 | 6:09:02 | 82 | 32 | 27.55 | 22 | |
| 08/05/2026 | 218 | 98 | 12:54:01 | 65 | 5:21:02 | 78 | 100 | 1:09:00 | 32 | 11:21:00 | 81 | 0 | 22 | 0.9 | 16 | 47 | 112 | 13:34:04 | 77 | 5:41:04 | 80 | 103 | 14:42:04 | 81 | 6:22:03 | 81 | 31.5 | 27.53 | 21.5 | |
| 08/06/2026 | 219 | 100 | 13:28:03 | 66 | 4:44:04 | 78 | 100 | 2:53:04 | 35 | 13:33:01 | 81 | 0 | 26 | 1.1 | 156 | 53 | 109 | 13:43:02 | 78 | 5:44:02 | 81 | 101 | 14:02:04 | 82 | 6:26:02 | 82 | 33 | 27.5 | 23 | |
| 08/07/2026 | 220 | 98 | 11:27:04 | 71 | 13:00:00 | 80 | 100 | 5:40:02 | 48 | 11:23:05 | 87 | 0.94 | 24 | 1.0 | 183 | 59 | 107 | 11:43:05 | 78 | 23:59:02 | 83 | 99 | 12:21:01 | 82 | 23:57:02 | 84 | 34.5 | 27.47 | 24.5 | |
| 08/08/2026 | 221 | 99 | 14:22:02 | 71 | 4:54:04 | 81 | 100 | 3:30:05 | 43 | 15:29:03 | 87 | 0.01 | 31 | 1.3 | 187 | 23 | 109 | 12:09:02 | 76 | 5:31:00 | 80 | 100 | 15:46:00 | 79 | 5:55:02 | 80 | 35 | 27.44 | 25 | |
| 08/09/2026 | 222 | 100 | 14:08:01 | 72 | 5:13:03 | 81 | 100 | 3:47:00 | 44 | 14:02:00 | 87 | 0.01 | 30 | 1.3 | 142 | 9 | 103 | 14:13:03 | 77 | 5:27:04 | 80 | 97 | 14:25:05 | 80 | 6:02:03 | 80 | 36 | 27.41 | 26 | |
| 08/10/2026 | 223 | 102 | 14:36:01 | 74 | 4:04:01 | 82 | 98 | 4:21:03 | 45 | 14:12:04 | 83 | 0 | 31 | 1.3 | 158 | 51 | 111 | 14:18:03 | 77 | 5:24:02 | 80 | 104 | 14:59:01 | 80 | 5:45:02 | 81 | 38 | 27.38 | 28 | |
| 08/11/2026 | 224 | 99 | 15:00:03 | 74 | 4:28:03 | 79 | 99 | 5:37:01 | 46 | 16:15:02 | 93 | 0 | 36 | 1.5 | 213 | 11 | 107 | 15:04:00 | 80 | 5:34:00 | 82 | 101 | 15:17:02 | 82 | 6:10:03 | 83 | 36.5 | 27.35 | 26.5 | |
| 08/12/2026 | 225 | 102 | 13:59:01 | 74 | 5:01:01 | 82 | 99 | 5:13:03 | 36 | 14:01:03 | 86 | 0 | 39 | 1.6 | 209 | 23 | 112 | 14:09:00 | 81 | 5:33:04 | 83 | 105 | 15:13:04 | 83 | 6:06:03 | 83 | 38 | 27.33 | 28 | |
| 08/13/2026 | 226 | 102 | 12:59:04 | 75 | 5:16:00 | 82 | 98 | 5:40:02 | 41 | 14:10:00 | 87 | 0 | 53 | 2.2 | 191 | 13 | 114 | 14:03:01 | 82 | 5:35:03 | 84 | 107 | 14:41:00 | 85 | 6:14:02 | 85 | 38.5 | 27.29 | 28.5 | |
| 08/14/2026 | 227 | 102 | 15:06:00 | 74 | 23:34:02 | 83 | 96 | 3:00:04 | 36 | 15:06:02 | 83 | 0 | 89 | 3.7 | 191 | 14 | 113 | 14:10:02 | 83 | 5:43:03 | 85 | 106 | 15:30:00 | 86 | 6:27:02 | 86 | 38 | 27.26 | 28 | |
| 08/15/2026 | 228 | 103 | 14:48:05 | 71 | 4:21:05 | 81 | 93 | 1:01:02 | 37 | 14:51:00 | 81 | 0 | 86 | 3.6 | 191 | 1 | 111 | 13:38:00 | 81 | 5:43:04 | 84 | 104 | 15:31:01 | 84 | 6:13:05 | 85 | 37 | 27.23 | 27 | |
| 08/16/2026 | 229 | 105 | 14:23:02 | 74 | 3:42:01 | 84 | 98 | 3:57:05 | 37 | 15:35:03 | 80 | 0 | 67 | 2.8 | 209 | 26 | 116 | 14:27:02 | 83 | 5:46:02 | 85 | 107 | 14:38:05 | 86 | 6:25:04 | 86 | 39.5 | 27.2 | 29.5 | |
| 08/17/2026 | 230 | 104 | 14:02:03 | 77 | 23:46:01 | 83 | 96 | 23:47:02 | 28 | 14:10:00 | 80 | 0 | 104 | 4.3 | 245 | 31 | 113 | 14:13:00 | 85 | 5:58:04 | 87 | 105 | 14:27:05 | 88 | 6:39:05 | 88 | 40.5 | 27.17 | 30.5 | |
| 08/18/2026 | 231 | 101 | 12:48:05 | 75 | 3:53:02 | 81 | 96 | 5:34:02 | 40 | 12:50:05 | 82 | 0 | 70 | 2.9 | 319 | 85 | 113 | 12:55:00 | 84 | 5:17:05 | 86 | 104 | 13:28:00 | 87 | 6:34:05 | 87 | 38 | 27.14 | 28 | |
| 08/19/2026 | 232 | 104 | 13:05:04 | 76 | 4:25:04 | 83 | 95 | 4:48:00 | 40 | 12:34:03 | 81 | 0.39 | 104 | 4.4 | 193 | 67 | 112 | 13:18:02 | 79 | 23:59:05 | 85 | 104 | 13:35:02 | 84 | 23:59:05 | 86 | 40 | 27.11 | 30 | |
| 08/20/2026 | 233 | 103 | 14:26:02 | 75 | 5:23:03 | 84 | 95 | 5:42:04 | 40 | 14:27:01 | 81 | 0 | 111 | 4.6 | 199 | 93 | 111 | 13:42:00 | 78 | 5:43:04 | 81 | 104 | 13:59:05 | 81 | 6:01:03 | 82 | 39 | 27.08 | 29 | |
| 08/21/2026 | 234 | 100 | 13:50:02 | 73 | 5:28:03 | 77 | 94 | 5:31:04 | 41 | 15:24:01 | 85 | 0 | 95 | 4.0 | 333 | 99 | 111 | 13:57:01 | 80 | 6:10:04 | 81 | 104 | 14:17:02 | 83 | 6:33:05 | 83 | 36.5 | 27.04 | 26.5 | |
| 08/22/2026 | 235 | 103 | 14:20:02 | 68 | 4:57:02 | 78 | 100 | 4:06:00 | 34 | 10:42:04 | 90 | 0.43 | 80 | 3.3 | 10 | 54 | 113 | 14:24:05 | 79 | 5:59:05 | 81 | 106 | 15:19:03 | 83 | 6:31:00 | 83 | 35.5 | 27.01 | 25.5 | |
| 08/23/2026 | 236 | 97 | 13:28:01 | 72 | 5:08:05 | 77 | 100 | 5:35:00 | 43 | 16:28:04 | 93 | 0.02 | 65 | 2.7 | 33 | 127 | 111 | 14:10:04 | 78 | 5:29:01 | 80 | 104 | 15:03:02 | 82 | 6:17:02 | 82 | 34.5 | 26.98 | 24.5 | |
| 08/24/2026 | 237 | 87 | 14:10:04 | 72 | 0:00:00 | 77 | 100 | 23:56:00 | 62 | 14:32:01 | 83 | 0.05 | 67 | 2.8 | 302 | 161 | 98 | 14:32:03 | 79 | 23:59:03 | 82 | 93 | 15:01:00 | 82 | 23:58:02 | 84 | 29.5 | 26.95 | 19.5 | |
| 08/25/2026 | 238 | 97 | 15:07:05 | 71 | 1:04:02 | 75 | 100 | 0:13:01 | 53 | 16:31:02 | 100 | 0.03 | 48 | 2.0 | 180 | 169 | 105 | 13:25:01 | 78 | 1:12:03 | 79 | 97 | 15:56:02 | 81 | 6:22:00 | 81 | 34 | 26.91 | 24 | |
| 08/26/2026 | 239 | 101 | 15:22:01 | 72 | 4:36:04 | 79 | 100 | 3:21:02 | 39 | 14:58:00 | 90 | 0.2 | 107 | 4.5 | 218 | 141 | 109 | 13:07:00 | 79 | 5:02:01 | 82 | 102 | 14:41:02 | 82 | 5:32:03 | 82 | 36.5 | 26.88 | 26.5 | |
| 08/27/2026 | 240 | 95 | 15:26:04 | 72 | 5:43:03 | 75 | 100 | 4:21:05 | 47 | 15:29:00 | 100 | 0 | 63 | 2.6 | 25 | 86 | 107 | 13:27:05 | 77 | 5:48:00 | 78 | 100 | 14:28:02 | 80 | 6:14:05 | 81 | 33.5 | 26.85 | 23.5 | |
| 08/28/2026 | 241 | 96 | 13:00:04 | 71 | 23:36:05 | 78 | 100 | 5:46:04 | 37 | 16:13:02 | 92 | 0 | 67 | 2.8 | 43 | 183 | 110 | 13:51:01 | 78 | 5:54:02 | 80 | 103 | 14:25:03 | 81 | 6:25:03 | 82 | 33.5 | 26.81 | 23.5 | |
| 08/29/2026 | 242 | 97 | 14:11:05 | 63 | 5:02:05 | 75 | 100 | 4:55:04 | 26 | 15:46:01 | 76 | 0 | 51 | 2.1 | 73 | 18 | 110 | 13:27:05 | 75 | 5:59:04 | 77 | 103 | 14:59:04 | 79 | 6:45:05 | 79 | 30 | 26.78 | 20 | |
| Average | 98.97 | 71.34 | 79.38 | 98.28 | 41.45 | 85.97 | 0.07 | 59.14 | 67.45 | 109.1 | 79.24 | 81.79 | 102.1 | 82.41 | 83 | 35.16 | 27.22 | 25.16 | ||||||||||||
| Total | 2.08 | 1019.5 | 789.47 | 729.5 |